createdAt,value
2017-07-30T00:02:06.701Z,21.10
2017-07-30T00:04:34.813Z,21.10
2017-07-30T00:07:03.639Z,21.00
2017-07-30T00:09:31.719Z,21.00
2017-07-30T00:12:00.684Z,21.00
2017-07-30T00:14:28.776Z,21.00
2017-07-30T00:16:56.850Z,21.00
2017-07-30T00:19:24.916Z,21.00
2017-07-30T00:21:52.987Z,20.90
2017-07-30T00:24:21.064Z,20.90
2017-07-30T00:26:49.148Z,20.90
2017-07-30T00:29:17.220Z,20.80
2017-07-30T00:31:45.292Z,20.80
2017-07-30T00:34:13.408Z,20.80
2017-07-30T00:36:41.500Z,20.70
2017-07-30T00:39:10.328Z,20.70
2017-07-30T00:41:38.413Z,20.60
2017-07-30T00:44:06.479Z,20.60
2017-07-30T00:46:34.555Z,20.60
2017-07-30T00:49:02.703Z,20.60
2017-07-30T00:51:30.794Z,20.60
2017-07-30T00:53:58.877Z,20.50
2017-07-30T00:56:26.951Z,20.50
2017-07-30T00:58:55.030Z,20.50
2017-07-30T01:01:23.103Z,20.50
2017-07-30T01:03:51.191Z,20.40
2017-07-30T01:06:19.258Z,20.40
2017-07-30T01:08:47.340Z,20.40
2017-07-30T01:11:16.183Z,20.30
2017-07-30T01:13:44.272Z,20.30
2017-07-30T01:16:12.347Z,20.30
2017-07-30T01:18:40.479Z,20.30
2017-07-30T01:21:08.551Z,20.20
2017-07-30T01:23:36.637Z,20.20
2017-07-30T01:26:04.720Z,20.20
2017-07-30T01:28:32.808Z,20.10
2017-07-30T01:31:00.890Z,20.10
2017-07-30T01:33:29.778Z,20.10
2017-07-30T01:35:57.851Z,20.00
2017-07-30T01:38:25.926Z,20.00
2017-07-30T01:40:54.059Z,20.00
2017-07-30T01:43:22.131Z,19.90
2017-07-30T01:45:50.211Z,19.90
2017-07-30T01:48:18.311Z,19.80
2017-07-30T01:50:46.394Z,19.80
2017-07-30T01:53:14.459Z,19.70
2017-07-30T01:55:42.538Z,19.70
2017-07-30T01:58:10.611Z,19.70
2017-07-30T02:00:38.688Z,19.70
2017-07-30T02:03:06.761Z,19.60
2017-07-30T02:05:34.834Z,19.60
2017-07-30T02:08:02.903Z,19.60
2017-07-30T02:10:31.039Z,19.50
2017-07-30T02:12:59.110Z,19.50
2017-07-30T02:15:27.179Z,19.50
2017-07-30T02:17:55.256Z,19.50
2017-07-30T02:20:23.323Z,19.40
2017-07-30T02:22:51.400Z,19.40
2017-07-30T02:25:19.473Z,19.40
2017-07-30T02:27:47.547Z,19.40
2017-07-30T02:30:15.620Z,19.40
2017-07-30T02:32:43.699Z,19.40
2017-07-30T02:35:11.764Z,19.30
2017-07-30T02:37:39.831Z,19.30
2017-07-30T02:40:07.915Z,19.30
2017-07-30T02:42:35.998Z,19.30
2017-07-30T02:45:04.080Z,19.30
2017-07-30T02:47:32.148Z,19.20
2017-07-30T02:50:00.263Z,19.10
2017-07-30T02:52:29.311Z,19.10
2017-07-30T02:54:57.396Z,19.10
2017-07-30T02:57:25.464Z,19.00
2017-07-30T02:59:53.544Z,19.00
2017-07-30T03:02:21.640Z,19.00
2017-07-30T03:04:50.496Z,18.90
2017-07-30T03:07:18.567Z,18.90
2017-07-30T03:09:46.648Z,19.00
2017-07-30T03:12:14.715Z,18.90
2017-07-30T03:14:42.794Z,18.90
2017-07-30T03:17:10.880Z,18.90
2017-07-30T03:19:38.984Z,18.90
2017-07-30T03:22:07.054Z,18.80
2017-07-30T03:24:35.117Z,18.80
2017-07-30T03:27:03.968Z,18.80
2017-07-30T03:29:32.036Z,18.80
2017-07-30T03:32:00.113Z,18.80
2017-07-30T03:34:28.183Z,18.80
2017-07-30T03:36:56.258Z,18.70
2017-07-30T03:39:24.327Z,18.70
2017-07-30T03:41:52.409Z,18.70
2017-07-30T03:44:20.487Z,18.60
2017-07-30T03:46:48.605Z,18.70
2017-07-30T03:49:16.668Z,18.60
2017-07-30T03:51:44.743Z,18.60
2017-07-30T03:54:12.807Z,18.60
2017-07-30T03:56:40.875Z,18.60
2017-07-30T03:59:09.732Z,18.70
2017-07-30T04:01:37.801Z,18.60
2017-07-30T04:04:05.878Z,18.70
2017-07-30T04:06:33.955Z,18.60
2017-07-30T04:09:02.099Z,18.60
2017-07-30T04:11:30.178Z,18.60
2017-07-30T04:13:58.269Z,18.60
2017-07-30T04:16:26.334Z,18.60
2017-07-30T04:18:54.407Z,18.60
2017-07-30T04:21:22.475Z,18.60
2017-07-30T04:23:50.556Z,18.60
2017-07-30T04:26:18.621Z,18.60
2017-07-30T04:28:46.698Z,18.70
2017-07-30T04:31:14.764Z,18.70
2017-07-30T04:33:42.836Z,18.70
2017-07-30T04:36:10.924Z,18.70
2017-07-30T04:38:38.983Z,18.70
2017-07-30T04:41:07.055Z,18.70
2017-07-30T04:43:35.122Z,18.70
2017-07-30T04:46:03.199Z,18.80
2017-07-30T04:48:31.272Z,18.80
2017-07-30T04:50:59.339Z,18.80
2017-07-30T04:53:27.414Z,18.80
2017-07-30T04:55:55.535Z,18.80
2017-07-30T04:58:24.395Z,18.90
2017-07-30T05:00:52.488Z,18.90
2017-07-30T05:03:21.322Z,18.90
2017-07-30T05:05:49.424Z,18.90
2017-07-30T05:08:17.508Z,19.00
2017-07-30T05:10:45.576Z,19.00
2017-07-30T05:13:13.660Z,19.10
2017-07-30T05:15:41.731Z,19.10
2017-07-30T05:18:09.807Z,19.20
2017-07-30T05:20:38.644Z,19.40
2017-07-30T05:23:06.715Z,19.40
2017-07-30T05:25:34.788Z,19.60
2017-07-30T05:28:02.860Z,19.80
2017-07-30T05:30:30.931Z,20.00
2017-07-30T05:32:59.011Z,20.10
2017-07-30T05:35:27.080Z,20.20
2017-07-30T05:37:55.161Z,20.30
2017-07-30T05:40:23.236Z,20.50
2017-07-30T05:42:51.308Z,20.70
2017-07-30T05:45:19.418Z,20.90
2017-07-30T05:47:47.480Z,21.10
2017-07-30T05:50:15.568Z,21.40
2017-07-30T05:52:44.420Z,21.80
2017-07-30T05:55:12.495Z,21.80
2017-07-30T05:57:40.572Z,22.00
2017-07-30T06:00:08.659Z,22.20
2017-07-30T06:02:36.737Z,22.50
2017-07-30T06:05:04.807Z,22.60
2017-07-30T06:07:32.875Z,23.00
2017-07-30T06:10:00.967Z,23.10
2017-07-30T06:12:29.803Z,23.10
2017-07-30T06:14:57.876Z,23.10
2017-07-30T06:17:25.956Z,23.10
2017-07-30T06:19:54.021Z,22.90
2017-07-30T06:22:22.096Z,22.70
2017-07-30T06:24:50.159Z,22.60
2017-07-30T06:27:18.235Z,22.50
2017-07-30T06:29:46.310Z,22.50
2017-07-30T06:32:14.384Z,22.40
2017-07-30T06:34:42.450Z,22.40
2017-07-30T06:37:10.537Z,22.60
2017-07-30T06:39:39.364Z,22.90
2017-07-30T06:42:07.428Z,22.90
2017-07-30T06:44:35.501Z,23.20
2017-07-30T06:47:04.348Z,23.90
2017-07-30T06:49:32.434Z,23.90
2017-07-30T06:52:00.522Z,24.00
2017-07-30T06:54:28.596Z,24.10
2017-07-30T06:56:56.660Z,24.20
2017-07-30T06:59:24.740Z,24.20
2017-07-30T07:01:52.798Z,24.20
2017-07-30T07:04:20.874Z,24.30
2017-07-30T07:06:48.957Z,24.40
2017-07-30T07:09:17.052Z,24.50
2017-07-30T07:11:45.892Z,24.70
2017-07-30T07:14:13.978Z,24.60
2017-07-30T07:16:42.048Z,24.60
2017-07-30T07:19:10.124Z,24.50
2017-07-30T07:21:38.955Z,24.50
2017-07-30T07:24:07.021Z,24.50
2017-07-30T07:26:35.091Z,24.50
2017-07-30T07:29:03.932Z,24.70
2017-07-30T07:31:32.007Z,24.60
2017-07-30T07:34:00.076Z,24.70
2017-07-30T07:36:28.927Z,24.90
2017-07-30T07:38:56.988Z,24.90
2017-07-30T07:41:25.060Z,25.00
2017-07-30T07:43:53.123Z,25.00
2017-07-30T07:46:21.195Z,25.10
2017-07-30T07:48:49.314Z,25.10
2017-07-30T07:51:17.380Z,25.10
2017-07-30T07:53:45.451Z,25.10
2017-07-30T07:56:13.506Z,25.30
2017-07-30T07:58:42.360Z,25.40
2017-07-30T08:01:10.431Z,25.40
2017-07-30T08:03:38.503Z,25.50
2017-07-30T08:06:06.575Z,25.60
2017-07-30T08:08:34.646Z,25.70
2017-07-30T08:11:02.735Z,25.70
2017-07-30T08:13:30.822Z,25.70
2017-07-30T08:15:58.894Z,25.80
2017-07-30T08:18:26.971Z,25.90
2017-07-30T08:20:55.027Z,25.90
2017-07-30T08:23:23.107Z,26.00
2017-07-30T08:25:51.176Z,26.00
2017-07-30T08:28:19.248Z,26.10
2017-07-30T08:30:47.323Z,26.10
2017-07-30T08:33:15.399Z,26.20
2017-07-30T08:35:44.247Z,26.30
2017-07-30T08:38:12.322Z,26.30
2017-07-30T08:40:40.387Z,26.40
2017-07-30T08:43:08.479Z,26.40
2017-07-30T08:45:36.551Z,26.50
2017-07-30T08:48:04.615Z,26.60
2017-07-30T08:50:32.692Z,26.70
2017-07-30T08:53:00.759Z,26.70
2017-07-30T08:55:28.842Z,26.80
2017-07-30T08:57:56.925Z,26.90
2017-07-30T09:00:25.212Z,27.00
2017-07-30T09:03:02.512Z,27.00
2017-07-30T09:05:31.355Z,27.20
2017-07-30T09:07:59.509Z,27.10
2017-07-30T09:10:27.571Z,27.30
2017-07-30T09:12:55.648Z,27.40
2017-07-30T09:15:23.714Z,27.40
2017-07-30T09:17:51.815Z,27.50
2017-07-30T09:20:19.875Z,27.50
2017-07-30T09:22:47.952Z,27.50
2017-07-30T09:25:16.024Z,27.60
2017-07-30T09:27:44.105Z,27.70
2017-07-30T09:30:12.169Z,27.70
2017-07-30T09:32:40.295Z,27.80
2017-07-30T09:35:08.367Z,27.90
2017-07-30T09:37:36.430Z,28.00
2017-07-30T09:40:04.519Z,28.10
2017-07-30T09:42:32.595Z,28.10
2017-07-30T09:45:00.697Z,28.20
2017-07-30T09:47:28.783Z,28.30
2017-07-30T09:49:56.863Z,28.30
2017-07-30T09:52:24.923Z,28.40
2017-07-30T09:54:55.678Z,28.40
2017-07-30T09:57:23.771Z,28.50
2017-07-30T09:59:51.855Z,28.50
2017-07-30T10:02:19.914Z,28.60
2017-07-30T10:04:47.982Z,28.70
2017-07-30T10:07:16.063Z,28.80
2017-07-30T10:09:44.132Z,28.80
2017-07-30T10:12:12.205Z,29.00
2017-07-30T10:14:40.276Z,29.10
2017-07-30T10:17:08.353Z,29.20
2017-07-30T10:19:36.415Z,29.20
2017-07-30T10:22:04.492Z,29.30
2017-07-30T10:24:32.555Z,29.30
2017-07-30T10:27:00.636Z,29.40
2017-07-30T10:29:28.714Z,29.40
2017-07-30T10:31:56.784Z,29.50
2017-07-30T10:34:24.881Z,29.60
2017-07-30T10:36:52.955Z,29.60
2017-07-30T10:39:21.790Z,29.70
2017-07-30T10:41:49.851Z,29.70
2017-07-30T10:44:17.928Z,29.70
2017-07-30T10:46:46.119Z,29.80
2017-07-30T10:49:14.197Z,29.80
2017-07-30T10:51:42.265Z,29.80
2017-07-30T10:54:10.335Z,29.90
2017-07-30T10:56:38.422Z,29.90
2017-07-30T10:59:06.496Z,29.90
2017-07-30T11:01:34.980Z,29.90
2017-07-30T11:04:03.069Z,29.90
2017-07-30T11:06:31.128Z,30.00
2017-07-30T11:08:59.207Z,30.00
2017-07-30T11:11:27.279Z,30.10
2017-07-30T11:13:56.145Z,30.10
2017-07-30T11:16:24.247Z,30.10
2017-07-30T11:18:52.304Z,30.10
2017-07-30T11:21:20.443Z,30.10
2017-07-30T11:23:49.383Z,30.20
2017-07-30T11:26:17.797Z,30.30
2017-07-30T11:28:45.859Z,30.30
2017-07-30T11:31:13.931Z,30.30
2017-07-30T11:33:41.998Z,30.30
2017-07-30T11:36:10.072Z,30.30
2017-07-30T11:38:38.139Z,30.30
2017-07-30T11:41:06.988Z,30.10
2017-07-30T11:43:35.067Z,30.20
2017-07-30T11:46:03.144Z,30.10
2017-07-30T11:48:31.232Z,30.20
2017-07-30T11:51:00.037Z,30.30
2017-07-30T11:53:28.866Z,30.30
2017-07-30T11:55:56.941Z,30.30
2017-07-30T11:58:25.023Z,30.30
2017-07-30T12:00:53.085Z,30.30
2017-07-30T12:03:21.157Z,30.30
2017-07-30T12:05:49.225Z,30.40
2017-07-30T12:08:17.299Z,30.40
2017-07-30T12:10:45.367Z,30.40
2017-07-30T12:13:13.446Z,30.50
2017-07-30T12:15:41.524Z,30.50
2017-07-30T12:18:09.635Z,30.50
2017-07-30T12:20:37.697Z,30.60
2017-07-30T12:23:05.779Z,30.60
2017-07-30T12:25:33.865Z,30.70
2017-07-30T12:28:02.903Z,30.70
2017-07-30T12:30:30.972Z,30.70
2017-07-30T12:32:59.047Z,30.60
2017-07-30T12:35:27.134Z,30.60
2017-07-30T12:37:55.202Z,30.60
2017-07-30T12:40:23.430Z,30.60
2017-07-30T12:42:52.263Z,30.60
2017-07-30T12:45:20.348Z,30.60
2017-07-30T12:47:48.606Z,30.50
2017-07-30T12:50:16.677Z,30.50
2017-07-30T12:52:44.747Z,30.50
2017-07-30T12:55:12.818Z,30.60
2017-07-30T12:57:40.889Z,30.60
2017-07-30T13:00:08.968Z,30.60
2017-07-30T13:02:37.018Z,30.70
2017-07-30T13:05:05.109Z,30.70
2017-07-30T13:07:33.182Z,30.70
2017-07-30T13:10:01.236Z,30.60
2017-07-30T13:12:29.317Z,30.50
2017-07-30T13:14:57.379Z,30.50
2017-07-30T13:17:25.468Z,30.60
2017-07-30T13:19:53.547Z,30.70
2017-07-30T13:22:21.614Z,30.60
2017-07-30T13:24:49.699Z,30.70
2017-07-30T13:27:17.782Z,30.70
2017-07-30T13:29:45.854Z,30.70
2017-07-30T13:32:13.928Z,30.70
2017-07-30T13:34:42.020Z,30.70
2017-07-30T13:37:10.091Z,30.70
2017-07-30T13:39:38.222Z,30.70
2017-07-30T13:42:07.280Z,30.70
2017-07-30T13:44:35.356Z,30.80
2017-07-30T13:47:04.182Z,30.70
2017-07-30T13:49:32.262Z,30.70
2017-07-30T13:52:00.323Z,30.70
2017-07-30T13:54:28.394Z,30.60
2017-07-30T13:56:56.469Z,30.60
2017-07-30T13:59:24.558Z,30.50
2017-07-30T14:01:52.617Z,30.50
2017-07-30T14:04:20.789Z,30.50
2017-07-30T14:06:48.848Z,30.50
2017-07-30T14:09:16.931Z,30.60
2017-07-30T14:11:45.027Z,30.70
2017-07-30T14:14:13.115Z,30.70
2017-07-30T14:16:41.188Z,30.60
2017-07-30T14:19:09.264Z,30.60
2017-07-30T14:21:37.332Z,30.50
2017-07-30T14:24:05.427Z,30.50
2017-07-30T14:26:34.279Z,30.40
2017-07-30T14:29:02.346Z,30.40
2017-07-30T14:31:30.422Z,30.40
2017-07-30T14:33:58.489Z,30.30
2017-07-30T14:36:26.558Z,30.30
2017-07-30T14:38:54.628Z,30.20
2017-07-30T14:41:22.710Z,30.10
2017-07-30T14:43:50.770Z,30.10
2017-07-30T14:46:18.861Z,30.00
2017-07-30T14:48:46.934Z,29.90
2017-07-30T14:51:15.027Z,29.90
2017-07-30T14:53:43.162Z,29.90
2017-07-30T14:56:11.227Z,29.80
2017-07-30T14:58:39.307Z,29.80
2017-07-30T15:01:07.377Z,29.80
2017-07-30T15:03:35.448Z,29.70
2017-07-30T15:06:03.516Z,29.70
2017-07-30T15:08:31.591Z,29.70
2017-07-30T15:10:59.659Z,29.60
2017-07-30T15:13:27.743Z,29.60
2017-07-30T15:15:55.802Z,29.60
2017-07-30T15:18:23.896Z,29.50
2017-07-30T15:20:51.962Z,29.40
2017-07-30T15:23:20.032Z,29.40
2017-07-30T15:25:48.119Z,29.40
2017-07-30T15:28:16.207Z,29.30
2017-07-30T15:30:44.279Z,29.30
2017-07-30T15:33:12.347Z,29.20
2017-07-30T15:35:40.431Z,29.20
2017-07-30T15:38:08.496Z,29.20
2017-07-30T15:40:36.567Z,29.20
2017-07-30T15:43:04.706Z,29.10
2017-07-30T15:45:32.795Z,29.00
2017-07-30T15:48:00.871Z,29.00
2017-07-30T15:50:28.955Z,29.00
2017-07-30T15:52:57.028Z,28.90
2017-07-30T15:55:25.131Z,28.90
2017-07-30T15:57:53.238Z,28.90
2017-07-30T16:00:21.315Z,28.90
2017-07-30T16:02:49.404Z,28.80
2017-07-30T16:05:17.476Z,28.80
2017-07-30T16:07:45.552Z,28.80
2017-07-30T16:10:13.626Z,28.80
2017-07-30T16:12:41.700Z,28.80
2017-07-30T16:15:09.771Z,28.90
2017-07-30T16:17:37.855Z,29.00
2017-07-30T16:20:05.928Z,29.10
2017-07-30T16:22:34.011Z,29.10
2017-07-30T16:25:02.079Z,29.10
2017-07-30T16:27:30.146Z,29.10
2017-07-30T16:29:58.211Z,29.10
2017-07-30T16:32:26.300Z,29.10
2017-07-30T16:34:54.370Z,29.10
2017-07-30T16:37:23.215Z,29.10
2017-07-30T16:39:51.390Z,29.10
2017-07-30T16:42:19.462Z,29.00
2017-07-30T16:44:47.531Z,29.00
2017-07-30T16:47:15.607Z,28.90
2017-07-30T16:49:43.687Z,28.90
2017-07-30T16:52:11.746Z,28.80
2017-07-30T16:54:39.835Z,28.80
2017-07-30T16:57:07.903Z,28.80
2017-07-30T16:59:35.975Z,28.70
2017-07-30T17:02:04.060Z,28.70
2017-07-30T17:04:32.144Z,28.70
2017-07-30T17:07:00.222Z,28.70
2017-07-30T17:09:28.293Z,28.70
2017-07-30T17:11:56.366Z,28.70
2017-07-30T17:14:24.434Z,28.70
2017-07-30T17:16:52.516Z,28.60
2017-07-30T17:19:20.583Z,28.60
2017-07-30T17:21:48.684Z,28.60
2017-07-30T17:24:16.751Z,28.60
2017-07-30T17:26:44.854Z,28.60
2017-07-30T17:29:12.927Z,28.60
2017-07-30T17:31:41.006Z,28.60
2017-07-30T17:34:09.076Z,28.50
2017-07-30T17:36:37.151Z,28.50
2017-07-30T17:39:05.228Z,28.50
2017-07-30T17:41:34.062Z,28.50
2017-07-30T17:44:02.136Z,28.40
2017-07-30T17:46:30.204Z,28.40
2017-07-30T17:48:58.389Z,28.40
2017-07-30T17:51:27.220Z,28.30
2017-07-30T17:53:55.295Z,28.20
2017-07-30T17:56:23.367Z,28.30
2017-07-30T17:58:51.469Z,28.20
2017-07-30T18:01:19.556Z,28.20
2017-07-30T18:03:47.604Z,28.10
2017-07-30T18:06:15.683Z,28.20
2017-07-30T18:08:43.757Z,28.10
2017-07-30T18:11:11.830Z,28.10
2017-07-30T18:13:39.895Z,28.00
2017-07-30T18:16:07.980Z,28.00
2017-07-30T18:18:36.038Z,27.90
2017-07-30T18:21:04.335Z,27.90
2017-07-30T18:23:32.407Z,27.80
2017-07-30T18:26:00.479Z,27.70
2017-07-30T18:28:28.544Z,27.60
2017-07-30T18:30:56.623Z,27.60
2017-07-30T18:33:24.695Z,27.50
2017-07-30T18:35:52.773Z,27.40
2017-07-30T18:38:20.852Z,27.40
2017-07-30T18:40:48.938Z,27.40
2017-07-30T18:43:17.010Z,27.30
2017-07-30T18:45:45.083Z,27.30
2017-07-30T18:48:13.163Z,27.30
2017-07-30T18:50:41.241Z,27.20
2017-07-30T18:53:09.310Z,27.20
2017-07-30T18:55:37.379Z,27.20
2017-07-30T18:58:05.455Z,27.10
2017-07-30T19:00:33.522Z,27.00
2017-07-30T19:03:02.891Z,27.00
2017-07-30T19:05:30.972Z,27.00
2017-07-30T19:07:59.048Z,26.90
2017-07-30T19:10:27.111Z,26.90
2017-07-30T19:12:55.198Z,26.80
2017-07-30T19:15:24.032Z,26.70
2017-07-30T19:17:52.107Z,26.70
2017-07-30T19:20:20.183Z,26.60
2017-07-30T19:22:48.251Z,26.60
2017-07-30T19:25:16.327Z,26.50
2017-07-30T19:27:44.396Z,26.60
2017-07-30T19:30:12.477Z,26.50
2017-07-30T19:32:40.545Z,26.50
2017-07-30T19:35:08.612Z,26.50
2017-07-30T19:37:36.693Z,26.50
2017-07-30T19:40:04.768Z,26.40
2017-07-30T19:42:32.838Z,26.40
2017-07-30T19:45:00.923Z,26.30
2017-07-30T19:47:28.998Z,26.20
2017-07-30T19:49:57.095Z,26.20
2017-07-30T19:52:25.179Z,26.10
2017-07-30T19:54:53.254Z,26.00
2017-07-30T19:57:22.087Z,25.90
2017-07-30T19:59:50.160Z,25.90
2017-07-30T20:02:18.231Z,25.90
2017-07-30T20:04:46.299Z,25.80
2017-07-30T20:07:14.394Z,25.80
2017-07-30T20:09:42.443Z,25.80
2017-07-30T20:12:10.515Z,25.70
2017-07-30T20:14:38.588Z,25.70
2017-07-30T20:17:06.663Z,25.60
2017-07-30T20:19:34.732Z,25.60
2017-07-30T20:22:02.808Z,25.60
2017-07-30T20:24:30.875Z,25.60
2017-07-30T20:26:58.958Z,25.50
2017-07-30T20:29:27.026Z,25.50
2017-07-30T20:31:55.105Z,25.50
2017-07-30T20:34:23.172Z,25.30
2017-07-30T20:36:51.249Z,25.30
2017-07-30T20:39:19.312Z,25.20
2017-07-30T20:41:47.383Z,25.10
2017-07-30T20:44:15.460Z,25.10
2017-07-30T20:46:43.567Z,25.00
2017-07-30T20:49:11.649Z,24.90
2017-07-30T20:54:33.572Z,24.80
2017-07-30T20:57:01.683Z,24.70
2017-07-30T20:59:30.534Z,24.70
2017-07-30T21:01:58.743Z,24.70
2017-07-30T21:04:27.578Z,24.60
2017-07-30T21:06:55.652Z,24.60
2017-07-30T21:09:23.825Z,24.50
2017-07-30T21:11:51.881Z,24.50
2017-07-30T21:14:20.008Z,24.40
2017-07-30T21:16:48.071Z,24.40
2017-07-30T21:19:16.158Z,24.30
2017-07-30T21:21:44.227Z,24.30
2017-07-30T21:24:12.290Z,24.30
2017-07-30T21:26:40.477Z,24.30
2017-07-30T21:29:08.542Z,24.30
2017-07-30T21:31:36.610Z,24.20
2017-07-30T21:34:04.690Z,24.20
2017-07-30T21:36:32.763Z,24.20
2017-07-30T21:39:00.841Z,24.20
2017-07-30T21:41:28.968Z,24.10
2017-07-30T21:43:57.039Z,24.10
2017-07-30T21:46:25.117Z,24.00
2017-07-30T21:48:53.187Z,24.00
2017-07-30T21:51:21.259Z,23.90
2017-07-30T21:53:49.331Z,23.90
2017-07-30T21:56:17.431Z,23.90
2017-07-30T21:58:45.495Z,23.80
2017-07-30T22:01:13.618Z,23.80
2017-07-30T22:03:41.682Z,23.70
2017-07-30T22:06:09.754Z,23.60
2017-07-30T22:08:38.599Z,23.50
2017-07-30T22:11:06.654Z,23.50
2017-07-30T22:13:34.886Z,23.50
2017-07-30T22:16:03.722Z,23.40
2017-07-30T22:18:32.502Z,23.30
2017-07-30T22:21:00.581Z,23.30
2017-07-30T22:23:28.654Z,23.30
2017-07-30T22:25:56.713Z,23.30
2017-07-30T22:28:24.778Z,23.30
2017-07-30T22:30:52.843Z,23.20
2017-07-30T22:33:20.929Z,23.20
2017-07-30T22:35:48.993Z,23.20
2017-07-30T22:38:17.834Z,23.20
2017-07-30T22:40:45.915Z,23.10
2017-07-30T22:43:13.987Z,23.20
2017-07-30T22:45:42.067Z,23.20
2017-07-30T22:48:10.129Z,23.10
2017-07-30T22:50:38.207Z,23.10
2017-07-30T22:53:06.280Z,23.00
2017-07-30T22:55:34.355Z,23.00
2017-07-30T22:58:02.420Z,22.90
2017-07-30T23:00:30.496Z,22.90
2017-07-30T23:02:58.652Z,22.90
2017-07-30T23:05:26.745Z,22.90
2017-07-30T23:07:54.810Z,22.90
2017-07-30T23:10:22.992Z,22.90
2017-07-30T23:12:51.058Z,22.90
2017-07-30T23:15:19.231Z,22.80
2017-07-30T23:17:47.310Z,22.90
2017-07-30T23:20:15.380Z,22.80
2017-07-30T23:22:43.450Z,22.80
2017-07-30T23:25:11.690Z,22.80
2017-07-30T23:27:39.780Z,22.80
2017-07-30T23:30:07.838Z,22.80
2017-07-30T23:32:35.927Z,22.70
2017-07-30T23:35:03.978Z,22.70
2017-07-30T23:37:32.052Z,22.60
2017-07-30T23:40:00.135Z,22.60
2017-07-30T23:42:28.198Z,22.60
2017-07-30T23:44:56.275Z,22.60
2017-07-30T23:47:24.341Z,22.60
2017-07-30T23:49:52.414Z,22.60
2017-07-30T23:52:20.484Z,22.60
2017-07-30T23:54:48.565Z,22.50
2017-07-30T23:57:16.635Z,22.50
2017-07-30T23:59:44.710Z,22.40
